Time;durP1;ratioP1;P1;durP2;ratioP2;P2;SDS_P1;SDS_P2;PMS_P1;PMS_P2;Temp;Humidity;BMP_temperature;BMP_pressure;BME280_temperature;BME280_humidity;BME280_pressure;Samples;Min_cycle;Max_cycle;Signal;HPM_P1;HPM_P2
2021/06/05 00:02:28;;;;;;;23.67;21.57;;;18.10;99.90;;;;;;5068131;28;20487;-63
2021/06/05 00:04:57;;;;;;;23.30;21.30;;;18.00;99.90;;;;;;5065651;28;20173;-63
2021/06/05 00:07:23;;;;;;;22.33;20.20;;;18.00;99.90;;;;;;5068444;28;20499;-63
2021/06/05 00:09:49;;;;;;;21.97;20.10;;;18.00;99.90;;;;;;5067498;28;20451;-63
2021/06/05 00:12:18;;;;;;;22.97;21.07;;;17.90;99.90;;;;;;5067365;28;20427;-63
2021/06/05 00:14:44;;;;;;;23.17;21.13;;;17.90;99.90;;;;;;5069205;28;20537;-64
2021/06/05 00:17:10;;;;;;;22.63;20.73;;;17.90;99.90;;;;;;5067283;28;20423;-61
2021/06/05 00:19:36;;;;;;;21.20;19.30;;;18.00;99.90;;;;;;5067972;28;20437;-64
2021/06/05 00:22:01;;;;;;;21.47;19.70;;;18.10;99.90;;;;;;5065698;28;20205;-64
2021/06/05 00:24:27;;;;;;;21.10;19.30;;;18.20;99.90;;;;;;5068062;28;20177;-63
2021/06/05 00:26:53;;;;;;;20.87;18.97;;;18.10;99.90;;;;;;5066341;28;20177;-63
2021/06/05 00:29:20;;;;;;;20.80;19.00;;;18.10;99.90;;;;;;5068295;28;20182;-60
2021/06/05 00:31:45;;;;;;;19.97;18.37;;;18.00;99.90;;;;;;5068567;28;21388;-63
2021/06/05 00:34:12;;;;;;;19.43;17.73;;;18.00;99.90;;;;;;5067149;28;20427;-63
2021/06/05 00:36:38;;;;;;;19.50;17.90;;;18.10;99.90;;;;;;5067856;28;20590;-64
2021/06/05 00:39:05;;;;;;;20.07;18.37;;;18.10;99.90;;;;;;5067661;28;20438;-60
2021/06/05 00:41:31;;;;;;;19.43;17.93;;;18.00;99.90;;;;;;5068372;28;20450;-62
2021/06/05 00:44:00;;;;;;;20.40;18.60;;;18.00;99.90;;;;;;5068690;28;20424;-63
2021/06/05 00:46:27;;;;;;;18.90;17.40;;;18.10;99.90;;;;;;5068538;28;20187;-62
2021/06/05 00:48:54;;;;;;;19.23;17.63;;;18.10;99.90;;;;;;5065607;28;20476;-63
2021/06/05 00:51:27;;;;;;;18.77;17.27;;;18.10;99.90;;;;;;5056161;28;20447;-63
2021/06/05 00:53:53;;;;;;;19.33;17.80;;;18.10;99.90;;;;;;5067698;28;20940;-62
2021/06/05 00:56:19;;;;;;;19.23;17.60;;;18.10;99.90;;;;;;5067115;28;20517;-62
2021/06/05 00:58:45;;;;;;;19.60;17.87;;;18.00;99.90;;;;;;5067737;28;20186;-61
2021/06/05 01:01:14;;;;;;;19.40;17.90;;;18.00;99.90;;;;;;5067071;28;21163;-63
2021/06/05 01:03:40;;;;;;;19.60;18.00;;;18.00;99.90;;;;;;5067842;28;20206;-63
2021/06/05 01:06:16;;;;;;;18.00;16.50;;;18.00;99.90;;;;;;5066861;28;20433;-63
2021/06/05 01:09:07;;;;;;;18.63;16.97;;;18.10;99.90;;;;;;5066540;28;20916;-62
2021/06/05 01:11:44;;;;;;;19.10;17.40;;;18.10;99.90;;;;;;5066214;28;20433;-62
2021/06/05 01:14:28;;;;;;;18.87;17.17;;;18.10;99.90;;;;;;5066677;28;20971;-63
2021/06/05 01:16:59;;;;;;;17.87;16.33;;;18.10;99.90;;;;;;5064717;28;20430;-55
2021/06/05 01:19:47;;;;;;;17.63;16.17;;;18.10;99.90;;;;;;5065908;28;20470;-62
2021/06/05 01:22:21;;;;;;;18.67;17.27;;;18.10;99.90;;;;;;5068264;28;20508;-61
2021/06/05 01:25:08;;;;;;;20.17;18.27;;;18.10;99.90;;;;;;5070744;28;20807;-62
2021/06/05 01:27:38;;;;;;;18.83;16.97;;;18.10;99.90;;;;;;5071231;28;21195;-62
2021/06/05 01:30:33;;;;;;;19.07;17.47;;;18.10;99.90;;;;;;5070873;28;20439;-63
2021/06/05 01:33:00;;;;;;;19.10;17.40;;;18.10;99.90;;;;;;5070831;28;20909;-62
2021/06/05 01:35:27;;;;;;;18.60;17.00;;;18.10;99.90;;;;;;5069641;28;20438;-63
2021/06/05 01:37:54;;;;;;;17.93;16.40;;;18.00;99.90;;;;;;5071451;28;20499;-63
2021/06/05 01:40:24;;;;;;;19.33;17.73;;;18.00;99.90;;;;;;5078578;28;20427;-63
2021/06/05 01:42:51;;;;;;;19.03;17.43;;;18.00;99.90;;;;;;5070308;28;20505;-63
2021/06/05 01:45:24;;;;;;;19.67;17.97;;;18.00;99.90;;;;;;5069964;28;20450;-63
2021/06/05 01:47:52;;;;;;;19.13;17.63;;;17.90;99.90;;;;;;5070986;28;20830;-64
2021/06/05 01:50:18;;;;;;;19.53;17.90;;;17.90;99.90;;;;;;5069116;28;20818;-60
2021/06/05 01:52:44;;;;;;;19.33;17.73;;;17.90;99.90;;;;;;5071108;28;20716;-64
2021/06/05 01:55:23;;;;;;;19.37;17.77;;;17.80;99.90;;;;;;5069310;28;20443;-64
2021/06/05 01:57:52;;;;;;;19.70;18.10;;;17.90;99.90;;;;;;5070800;28;20276;-64
2021/06/05 02:00:26;;;;;;;18.23;16.83;;;17.80;99.90;;;;;;5069732;28;20471;-64
2021/06/05 02:02:53;;;;;;;20.13;18.53;;;17.80;99.90;;;;;;5068062;28;20518;-63
2021/06/05 02:05:20;;;;;;;20.57;18.87;;;17.70;99.90;;;;;;5069680;28;20534;-57
2021/06/05 02:07:46;;;;;;;18.50;17.00;;;17.70;99.90;;;;;;5070854;28;21238;-63
2021/06/05 02:10:17;;;;;;;19.00;17.40;;;17.80;99.90;;;;;;5069664;28;20478;-64
2021/06/05 02:12:43;;;;;;;19.10;17.53;;;17.70;99.90;;;;;;5070201;28;20185;-64
2021/06/05 02:15:14;;;;;;;20.03;18.13;;;17.70;99.90;;;;;;5068871;28;20444;-65
2021/06/05 02:17:41;;;;;;;19.90;18.20;;;17.70;99.90;;;;;;5071131;28;20268;-65
2021/06/05 02:20:19;;;;;;;19.73;18.13;;;17.70;99.90;;;;;;5070224;28;20526;-63
2021/06/05 02:22:46;;;;;;;18.90;17.37;;;17.70;99.90;;;;;;5070259;28;20508;-63
2021/06/05 02:25:15;;;;;;;18.47;16.87;;;17.70;99.90;;;;;;5069296;28;20463;-60
2021/06/05 02:27:41;;;;;;;20.17;18.53;;;17.70;99.90;;;;;;5070756;28;20901;-62
2021/06/05 02:30:11;;;;;;;18.80;17.30;;;17.70;99.90;;;;;;5069945;28;20510;-62
2021/06/05 02:32:38;;;;;;;18.40;17.00;;;17.60;99.90;;;;;;5068885;28;20529;-63
2021/06/05 02:35:08;;;;;;;17.83;16.27;;;17.60;99.90;;;;;;5069378;28;20423;-62
2021/06/05 02:37:34;;;;;;;17.80;16.30;;;17.50;99.90;;;;;;5070573;28;20496;-62
2021/06/05 02:40:05;;;;;;;18.33;16.60;;;17.50;99.90;;;;;;5062786;28;20470;-63
2021/06/05 02:42:31;;;;;;;18.37;16.87;;;17.50;99.90;;;;;;5068919;28;20283;-63
2021/06/05 02:44:57;;;;;;;18.50;16.90;;;17.50;99.90;;;;;;5069107;28;20496;-63
2021/06/05 02:47:26;;;;;;;18.20;16.73;;;17.50;99.90;;;;;;5067936;28;20945;-63
2021/06/05 02:49:52;;;;;;;18.47;16.97;;;17.60;99.90;;;;;;5069444;28;20927;-63
2021/06/05 02:52:35;;;;;;;19.23;17.53;;;17.40;99.90;;;;;;5068572;28;20440;-63
2021/06/05 02:55:09;;;;;;;19.27;17.57;;;17.40;99.90;;;;;;5069656;28;20235;-63
2021/06/05 02:57:35;;;;;;;19.03;17.47;;;17.40;99.90;;;;;;5067490;28;20470;-63
2021/06/05 03:00:00;;;;;;;19.93;18.23;;;17.40;99.90;;;;;;5067907;28;20475;-63
2021/06/05 03:02:26;;;;;;;20.60;18.80;;;17.40;99.90;;;;;;5068244;28;20521;-63
2021/06/05 03:04:52;;;;;;;19.30;17.70;;;17.40;99.90;;;;;;5067256;28;20508;-63
2021/06/05 03:07:18;;;;;;;19.37;17.77;;;17.40;99.90;;;;;;5067307;28;20185;-62
2021/06/05 03:09:43;;;;;;;18.83;17.23;;;17.40;99.90;;;;;;5066892;28;20177;-63
2021/06/05 03:12:12;;;;;;;19.20;17.60;;;17.50;99.90;;;;;;5069163;28;20205;-63
2021/06/05 03:14:39;;;;;;;20.23;18.63;;;17.50;99.90;;;;;;5069002;28;20224;-63
2021/06/05 03:17:06;;;;;;;19.30;17.70;;;17.40;99.90;;;;;;5064488;28;20430;-61
2021/06/05 03:19:32;;;;;;;20.37;18.47;;;17.40;99.90;;;;;;5068530;28;20488;-62
2021/06/05 03:21:57;;;;;;;19.23;17.63;;;17.40;99.90;;;;;;5069667;28;20523;-63
2021/06/05 03:24:23;;;;;;;20.20;18.47;;;17.40;99.90;;;;;;5066927;28;20463;-63
2021/06/05 03:26:49;;;;;;;19.10;17.53;;;17.40;99.90;;;;;;5069149;28;20255;-63
2021/06/05 03:29:14;;;;;;;20.20;18.50;;;17.40;99.90;;;;;;5069132;28;20203;-63
2021/06/05 03:31:40;;;;;;;20.07;18.27;;;17.30;99.90;;;;;;5069197;28;20787;-63
2021/06/05 03:34:06;;;;;;;20.53;18.63;;;17.40;99.90;;;;;;5068548;28;20200;-63
2021/06/05 03:36:31;;;;;;;19.83;18.20;;;17.40;99.90;;;;;;5069330;28;20193;-63
2021/06/05 03:38:58;;;;;;;20.03;18.13;;;17.30;99.90;;;;;;5068518;28;20199;-63
2021/06/05 03:41:24;;;;;;;19.70;18.00;;;17.40;99.90;;;;;;5065685;28;20226;-63
2021/06/05 03:43:50;;;;;;;20.70;19.00;;;17.40;99.90;;;;;;5060616;28;20439;-63
2021/06/05 03:46:16;;;;;;;20.33;18.60;;;17.40;99.90;;;;;;5066938;28;20184;-62
2021/06/05 03:48:41;;;;;;;19.50;17.90;;;17.30;99.90;;;;;;5068887;28;20435;-62
2021/06/05 03:51:08;;;;;;;19.43;17.63;;;17.30;99.90;;;;;;5069051;28;20975;-64
2021/06/05 03:53:34;;;;;;;19.37;17.70;;;17.40;99.90;;;;;;5068475;28;20632;-63
2021/06/05 03:56:00;;;;;;;19.33;17.73;;;17.50;99.90;;;;;;5068867;28;20439;-63
2021/06/05 03:58:38;;;;;;;20.27;18.57;;;17.60;99.90;;;;;;5067284;28;20428;-63
2021/06/05 04:01:06;;;;;;;20.23;18.53;;;17.70;99.90;;;;;;5067548;28;20498;-64
2021/06/05 04:03:32;;;;;;;19.03;17.53;;;17.70;99.90;;;;;;5068907;28;20450;-63
2021/06/05 04:05:58;;;;;;;18.97;17.37;;;17.70;99.90;;;;;;5068805;28;20450;-63
2021/06/05 04:08:24;;;;;;;20.07;18.43;;;17.80;99.90;;;;;;5067344;28;20188;-63
2021/06/05 04:10:50;;;;;;;20.47;18.57;;;17.90;99.90;;;;;;5066334;28;20182;-63
2021/06/05 04:13:16;;;;;;;19.50;17.90;;;18.00;99.90;;;;;;5061020;28;20221;-62
2021/06/05 04:15:41;;;;;;;19.40;17.70;;;18.00;99.90;;;;;;5066751;28;20459;-64
2021/06/05 04:18:15;;;;;;;20.10;18.30;;;17.90;99.90;;;;;;5068264;28;20423;-64
2021/06/05 04:20:42;;;;;;;20.47;18.83;;;17.90;99.90;;;;;;5062997;28;20840;-64
2021/06/05 04:23:10;;;;;;;20.00;18.40;;;17.80;99.90;;;;;;5068171;28;20941;-64
2021/06/05 04:25:36;;;;;;;19.97;18.33;;;17.80;99.90;;;;;;5066630;28;20457;-65
2021/06/05 04:28:03;;;;;;;19.33;17.70;;;17.90;99.90;;;;;;5068764;28;20441;-65
2021/06/05 04:30:30;;;;;;;19.70;18.03;;;18.00;99.90;;;;;;5068292;28;20424;-65
2021/06/05 04:32:56;;;;;;;19.07;17.57;;;18.10;99.90;;;;;;5067973;28;20930;-65
2021/06/05 04:35:22;;;;;;;19.67;17.97;;;18.10;99.90;;;;;;5067907;28;20522;-65
2021/06/05 04:37:48;;;;;;;18.70;17.07;;;18.30;99.90;;;;;;5066190;28;21324;-65
2021/06/05 04:40:14;;;;;;;18.70;17.20;;;18.40;99.90;;;;;;5065492;28;20520;-65
2021/06/05 04:42:40;;;;;;;18.93;17.13;;;18.50;99.90;;;;;;5067069;28;20469;-64
2021/06/05 04:45:08;;;;;;;19.07;17.43;;;18.60;99.90;;;;;;5067285;28;21273;-64
2021/06/05 04:47:34;;;;;;;17.50;16.20;;;18.80;99.90;;;;;;5067110;28;20237;-62
2021/06/05 04:50:00;;;;;;;18.93;17.33;;;18.90;99.90;;;;;;5067175;28;20534;-63
2021/06/05 04:52:25;;;;;;;19.57;17.60;;;19.00;99.90;;;;;;5067184;28;20530;-63
2021/06/05 04:54:51;;;;;;;18.13;16.63;;;19.00;99.90;;;;;;5068633;28;20207;-63
2021/06/05 04:57:17;;;;;;;18.20;16.60;;;19.10;99.90;;;;;;5070939;28;20234;-63
2021/06/05 04:59:43;;;;;;;17.87;16.20;;;19.30;99.90;;;;;;5069771;28;20466;-63
2021/06/05 05:02:09;;;;;;;17.57;15.97;;;19.40;99.90;;;;;;5070793;28;20694;-64
2021/06/05 05:04:34;;;;;;;17.63;16.07;;;19.30;99.90;;;;;;5071375;28;20427;-63
2021/06/05 05:07:00;;;;;;;17.50;16.10;;;19.40;99.90;;;;;;5068856;28;20198;-64
2021/06/05 05:09:25;;;;;;;16.77;15.47;;;19.50;99.90;;;;;;5071381;28;20234;-64
2021/06/05 05:11:51;;;;;;;18.27;16.87;;;19.50;99.90;;;;;;5064390;28;20275;-64
2021/06/05 05:14:17;;;;;;;18.90;17.30;;;19.60;99.90;;;;;;5071621;28;20196;-64
2021/06/05 05:16:43;;;;;;;17.50;16.20;;;19.60;99.90;;;;;;5070906;28;20179;-64
2021/06/05 05:19:08;;;;;;;19.00;17.40;;;19.70;99.90;;;;;;5070503;28;21008;-65
2021/06/05 05:21:35;;;;;;;18.80;17.20;;;19.60;99.90;;;;;;5072214;28;20210;-64
2021/06/05 05:24:01;;;;;;;19.87;18.13;;;19.70;99.90;;;;;;5069149;28;20177;-62
2021/06/05 05:26:28;;;;;;;19.37;17.90;;;19.60;99.90;;;;;;5071641;28;20455;-63
2021/06/05 05:28:55;;;;;;;18.33;17.00;;;19.60;99.90;;;;;;5070745;28;20175;-62
2021/06/05 05:31:23;;;;;;;17.30;15.90;;;19.70;99.90;;;;;;5071292;28;20468;-64
2021/06/05 05:33:49;;;;;;;17.40;16.00;;;20.00;99.90;;;;;;5070398;28;20449;-64
2021/06/05 05:36:22;;;;;;;17.90;16.40;;;20.20;99.90;;;;;;5071291;28;20439;-64
2021/06/05 05:38:48;;;;;;;18.80;17.30;;;20.50;99.90;;;;;;5069062;28;20442;-65
2021/06/05 05:41:17;;;;;;;17.60;16.13;;;20.60;99.90;;;;;;5071337;28;20529;-63
2021/06/05 05:43:43;;;;;;;18.13;16.63;;;20.90;99.90;;;;;;5070038;28;20902;-65
2021/06/05 05:46:08;;;;;;;17.90;16.23;;;21.00;99.90;;;;;;5070860;28;20420;-65
2021/06/05 05:48:36;;;;;;;16.80;15.50;;;21.10;99.90;;;;;;5070158;28;20250;-62
2021/06/05 05:51:02;;;;;;;16.70;15.30;;;21.20;99.90;;;;;;5070086;28;20742;-64
2021/06/05 05:53:28;;;;;;;16.90;15.60;;;21.30;99.90;;;;;;5067842;28;20435;-65
2021/06/05 05:55:53;;;;;;;18.63;16.30;;;21.30;99.90;;;;;;5063674;28;20476;-66
2021/06/05 05:58:22;;;;;;;16.40;14.87;;;21.40;99.90;;;;;;5070590;28;20184;-65
2021/06/05 06:00:50;;;;;;;14.83;13.73;;;21.50;99.90;;;;;;5069711;28;20209;-68
2021/06/05 06:03:17;;;;;;;15.47;14.10;;;21.70;99.90;;;;;;5068370;28;20431;-65
2021/06/05 06:05:43;;;;;;;15.50;14.30;;;21.80;99.90;;;;;;5069825;28;20435;-58
2021/06/05 06:08:11;;;;;;;17.57;16.00;;;21.90;99.90;;;;;;5068165;28;20530;-64
2021/06/05 06:10:38;;;;;;;16.90;15.60;;;22.00;99.90;;;;;;5070689;28;20455;-64
2021/06/05 06:13:04;;;;;;;15.70;14.50;;;22.20;99.90;;;;;;5069021;28;20438;-64
2021/06/05 06:15:31;;;;;;;16.47;15.37;;;22.30;99.90;;;;;;5070442;28;20420;-64
2021/06/05 06:17:58;;;;;;;16.87;15.57;;;22.40;99.90;;;;;;5070451;28;20441;-62
2021/06/05 06:20:27;;;;;;;16.33;14.90;;;22.50;99.90;;;;;;5070244;28;20496;-65
2021/06/05 06:22:54;;;;;;;15.87;14.67;;;22.50;99.90;;;;;;5066089;28;20454;-64
2021/06/05 06:25:23;;;;;;;15.50;14.50;;;22.50;99.90;;;;;;5070677;28;20457;-64
2021/06/05 06:27:50;;;;;;;15.60;14.50;;;22.30;99.90;;;;;;5069704;28;20435;-64
2021/06/05 06:30:29;;;;;;;15.50;14.40;;;22.40;99.90;;;;;;5065685;28;20499;-64
2021/06/05 06:32:55;;;;;;;16.77;15.50;;;22.50;99.90;;;;;;5066467;28;21079;-65
2021/06/05 06:35:22;;;;;;;16.17;14.77;;;22.50;99.90;;;;;;5069764;28;20435;-67
2021/06/05 06:37:49;;;;;;;16.60;15.30;;;22.60;99.90;;;;;;5069676;28;20435;-68
2021/06/05 06:40:17;;;;;;;16.80;15.37;;;22.70;99.90;;;;;;5067807;28;20435;-67
2021/06/05 06:42:42;;;;;;;16.53;15.23;;;22.90;99.90;;;;;;5066650;28;20486;-67
2021/06/05 06:45:09;;;;;;;16.97;15.67;;;22.90;99.90;;;;;;5068525;28;20448;-68
2021/06/05 06:47:35;;;;;;;15.60;14.47;;;23.00;99.90;;;;;;5066940;28;20261;-67
2021/06/05 06:50:00;;;;;;;15.10;13.90;;;23.00;99.90;;;;;;5068373;28;20494;-67
2021/06/05 06:52:26;;;;;;;15.80;14.50;;;23.00;99.90;;;;;;5060477;28;20637;-64
2021/06/05 06:54:53;;;;;;;14.87;13.70;;;23.10;99.90;;;;;;5067368;28;20446;-62
2021/06/05 06:57:20;;;;;;;16.70;15.37;;;23.10;99.90;;;;;;5069039;28;20235;-63
2021/06/05 06:59:46;;;;;;;15.90;14.70;;;23.20;99.90;;;;;;5069967;28;20455;-63
2021/06/05 07:02:11;;;;;;;16.30;15.00;;;23.30;99.90;;;;;;5066470;28;20485;-64
2021/06/05 07:04:37;;;;;;;14.80;13.60;;;23.30;99.90;;;;;;5070369;28;20183;-64
2021/06/05 07:07:04;;;;;;;16.40;14.90;;;23.50;99.90;;;;;;5069236;28;20571;-64
2021/06/05 07:09:32;;;;;;;15.73;14.47;;;23.50;99.90;;;;;;5069659;28;20280;-63
2021/06/05 07:11:57;;;;;;;15.33;14.13;;;23.70;99.90;;;;;;5068171;28;21359;-64
2021/06/05 07:14:23;;;;;;;16.77;15.47;;;23.90;99.90;;;;;;5068893;28;20526;-64
2021/06/05 07:16:49;;;;;;;16.37;15.17;;;24.20;99.90;;;;;;5069682;28;20185;-64
2021/06/05 07:19:14;;;;;;;15.30;14.20;;;24.50;99.90;;;;;;5068986;28;20184;-64
2021/06/05 07:21:40;;;;;;;16.20;14.97;;;24.50;99.90;;;;;;5069891;28;20288;-64
2021/06/05 07:24:06;;;;;;;16.47;15.27;;;24.50;99.90;;;;;;5069181;28;20191;-64
2021/06/05 07:26:32;;;;;;;15.20;14.10;;;24.80;99.90;;;;;;5069204;28;20293;-64
2021/06/05 07:29:01;;;;;;;15.43;14.30;;;24.90;99.90;;;;;;5068400;28;20191;-64
2021/06/05 07:31:30;;;;;;;15.60;14.50;;;25.20;99.20;;;;;;5069208;28;20419;-64
2021/06/05 07:33:56;;;;;;;15.53;14.43;;;25.40;98.00;;;;;;5068352;28;20435;-64
2021/06/05 07:36:30;;;;;;;15.30;14.20;;;25.60;97.50;;;;;;5069631;28;20773;-65
2021/06/05 07:38:56;;;;;;;16.30;15.20;;;25.60;97.40;;;;;;5068793;28;20552;-64
2021/06/05 07:41:22;;;;;;;14.73;13.53;;;25.70;97.00;;;;;;5069046;28;20998;-65
2021/06/05 07:43:47;;;;;;;15.50;14.20;;;25.60;97.50;;;;;;5068104;28;20185;-65
2021/06/05 07:46:13;;;;;;;16.07;14.67;;;25.80;97.10;;;;;;5069330;28;20184;-65
2021/06/05 07:48:39;;;;;;;15.63;14.40;;;25.90;96.60;;;;;;5068920;28;20284;-64
2021/06/05 07:51:06;;;;;;;16.40;15.10;;;26.10;96.90;;;;;;5069381;28;20658;-64
2021/06/05 07:53:32;;;;;;;15.03;13.93;;;26.10;96.30;;;;;;5068213;28;20177;-64
2021/06/05 07:55:58;;;;;;;16.93;15.43;;;26.40;96.40;;;;;;5069056;28;20507;-65
2021/06/05 07:58:23;;;;;;;16.03;14.93;;;26.50;94.90;;;;;;5069359;28;20503;-59
2021/06/05 08:00:49;;;;;;;16.80;15.60;;;26.50;95.10;;;;;;5067743;28;20213;-65
2021/06/05 08:03:15;;;;;;;16.30;15.10;;;26.40;95.00;;;;;;5069488;28;20718;-65
2021/06/05 08:05:41;;;;;;;16.43;15.07;;;26.30;94.80;;;;;;5067852;28;20427;-63
2021/06/05 08:08:09;;;;;;;15.83;14.63;;;26.20;94.90;;;;;;5069340;28;20177;-64
2021/06/05 08:10:35;;;;;;;15.73;14.43;;;26.10;95.20;;;;;;5068754;28;20422;-64
2021/06/05 08:13:01;;;;;;;16.17;14.87;;;26.30;94.90;;;;;;5068308;28;20776;-64
2021/06/05 08:15:30;;;;;;;16.10;14.90;;;26.20;95.00;;;;;;5069193;28;21285;-66
2021/06/05 08:17:56;;;;;;;15.67;14.50;;;26.30;94.70;;;;;;5069358;28;20181;-64
2021/06/05 08:20:30;;;;;;;14.87;13.77;;;26.30;94.90;;;;;;5068358;28;20450;-64
2021/06/05 08:22:58;;;;;;;17.13;15.93;;;26.60;95.60;;;;;;5068742;28;20203;-64
2021/06/05 08:25:25;;;;;;;15.93;14.80;;;26.80;94.00;;;;;;5068386;28;20440;-63
2021/06/05 08:27:52;;;;;;;16.60;15.40;;;26.80;93.60;;;;;;5069012;28;20412;-64
2021/06/05 08:30:29;;;;;;;16.67;15.47;;;26.90;93.00;;;;;;5070574;28;20423;-65
2021/06/05 08:32:55;;;;;;;16.73;15.57;;;27.10;93.20;;;;;;5073302;28;20418;-64
2021/06/05 08:35:21;;;;;;;15.80;14.70;;;27.20;92.50;;;;;;5071376;28;20423;-64
2021/06/05 08:37:46;;;;;;;15.20;14.10;;;27.30;91.90;;;;;;5072837;28;20264;-64
2021/06/05 08:40:17;;;;;;;15.10;14.00;;;27.50;91.80;;;;;;5072350;28;20514;-64
2021/06/05 08:42:50;;;;;;;16.27;15.17;;;27.40;91.80;;;;;;5067845;28;20220;-63
2021/06/05 08:45:21;;;;;;;16.57;15.10;;;27.40;91.60;;;;;;5070869;28;20424;-64
2021/06/05 08:47:47;;;;;;;16.60;15.33;;;27.60;90.50;;;;;;5072449;28;20412;-60
2021/06/05 08:50:28;;;;;;;16.87;15.57;;;27.70;90.60;;;;;;5072117;28;20403;-65
2021/06/05 08:53:13;;;;;;;15.10;14.10;;;27.90;90.00;;;;;;5070678;28;20417;-64
2021/06/05 08:55:52;;;;;;;15.07;13.97;;;27.90;90.50;;;;;;5070803;28;20890;-64
2021/06/05 08:58:38;;;;;;;14.83;13.83;;;28.10;90.10;;;;;;5071913;28;20487;-65
2021/06/05 09:01:20;;;;;;;14.33;13.33;;;28.20;90.30;;;;;;5061287;28;20521;-58
2021/06/05 09:03:52;;;;;;;15.60;14.50;;;28.40;89.40;;;;;;5072566;28;20426;-65
2021/06/05 09:06:29;;;;;;;15.07;14.07;;;28.10;90.00;;;;;;5071438;28;20559;-65
2021/06/05 09:08:55;;;;;;;15.77;14.47;;;27.90;89.30;;;;;;5072344;28;20426;-66
2021/06/05 09:11:21;;;;;;;15.37;14.27;;;28.00;88.20;;;;;;5072319;28;20419;-64
2021/06/05 09:13:46;;;;;;;15.80;14.50;;;27.70;88.70;;;;;;5072000;28;20260;-63
2021/06/05 09:16:31;;;;;;;16.20;15.10;;;27.50;91.30;;;;;;5071619;28;20186;-65
2021/06/05 09:19:09;;;;;;;16.37;15.27;;;27.30;92.70;;;;;;5072127;28;20198;-65
2021/06/05 09:22:00;;;;;;;16.20;15.10;;;27.20;93.80;;;;;;5072050;28;20821;-65
2021/06/05 09:24:47;;;;;;;17.43;16.10;;;26.90;95.80;;;;;;5067796;28;20467;-65
2021/06/05 09:27:20;;;;;;;18.37;16.83;;;26.40;96.80;;;;;;5072358;28;20443;-65
2021/06/05 09:29:54;;;;;;;16.00;14.90;;;26.00;96.50;;;;;;5071170;28;20427;-65
2021/06/05 09:32:26;;;;;;;18.53;17.23;;;25.70;99.60;;;;;;5071933;28;20418;-65
2021/06/05 09:35:20;;;;;;;17.10;15.90;;;25.40;99.80;;;;;;5071157;28;20423;-61
2021/06/05 09:37:52;;;;;;;16.70;15.40;;;25.30;99.90;;;;;;5071257;28;20812;-65
2021/06/05 09:40:33;;;;;;;18.90;17.40;;;25.20;99.90;;;;;;5069462;28;20427;-65
2021/06/05 09:43:07;;;;;;;18.97;17.37;;;25.10;99.90;;;;;;5070379;28;20469;-65
2021/06/05 09:45:43;;;;;;;18.70;17.10;;;25.10;99.90;;;;;;5069977;28;20434;-64
2021/06/05 09:48:30;;;;;;;18.00;16.60;;;25.10;99.90;;;;;;5071809;28;20524;-68
2021/06/05 09:51:00;;;;;;;17.93;16.63;;;25.30;99.90;;;;;;5071428;28;20472;-64
2021/06/05 09:53:36;;;;;;;19.27;17.60;;;25.40;99.90;;;;;;5070096;28;20510;-64
2021/06/05 09:56:22;;;;;;;17.00;15.60;;;25.60;99.90;;;;;;5071606;28;20508;-65
2021/06/05 09:59:19;;;;;;;18.43;16.40;;;25.70;99.90;;;;;;5070915;28;20917;-64
2021/06/05 10:02:12;;;;;;;16.60;15.30;;;26.00;99.90;;;;;;5069087;28;20475;-64
2021/06/05 10:04:39;;;;;;;16.60;15.40;;;26.70;99.90;;;;;;5069910;28;21215;-63
2021/06/05 10:07:24;;;;;;;16.80;15.60;;;27.30;97.80;;;;;;5070067;28;20422;-64
2021/06/05 10:09:57;;;;;;;16.17;14.97;;;27.60;96.70;;;;;;5070432;28;20798;-65
2021/06/05 10:12:26;;;;;;;16.40;15.20;;;28.00;96.80;;;;;;5068814;28;20445;-64
2021/06/05 10:15:03;;;;;;;16.33;15.20;;;28.30;95.60;;;;;;5058649;28;20418;-64
2021/06/05 10:17:50;;;;;;;17.20;16.00;;;28.70;93.60;;;;;;5068992;28;20454;-56
2021/06/05 10:20:33;;;;;;;15.97;14.80;;;28.90;93.30;;;;;;5068815;28;20439;-63
2021/06/05 10:22:59;;;;;;;17.33;16.13;;;28.80;92.50;;;;;;5068987;28;20466;-67
2021/06/05 10:25:48;;;;;;;16.27;15.17;;;29.00;91.50;;;;;;5071199;28;20485;-64
2021/06/05 10:28:19;;;;;;;16.53;15.40;;;29.30;90.00;;;;;;5069473;28;20889;-64
2021/06/05 10:30:52;;;;;;;16.80;15.70;;;29.20;88.40;;;;;;5071186;28;20431;-63
2021/06/05 10:33:30;;;;;;;14.87;13.60;;;29.50;89.70;;;;;;5068630;28;20431;-65
2021/06/05 10:35:56;;;;;;;17.47;16.30;;;30.10;88.00;;;;;;5070798;28;20394;-64
2021/06/05 10:38:34;;;;;;;15.97;14.87;;;31.00;80.00;;;;;;5068953;28;21286;-63
2021/06/05 10:41:00;;;;;;;14.90;14.00;;;31.40;78.20;;;;;;5071068;28;20718;-57
2021/06/05 10:43:26;;;;;;;15.77;14.57;;;32.20;76.50;;;;;;5070731;28;20392;-63
2021/06/05 10:45:54;;;;;;;16.50;15.40;;;33.30;68.40;;;;;;5070001;28;20639;-65
2021/06/05 10:48:40;;;;;;;18.03;16.77;;;34.30;62.70;;;;;;5069335;28;20671;-64
2021/06/05 10:51:23;;;;;;;16.60;15.50;;;34.60;57.10;;;;;;5070740;28;20924;-64
2021/06/05 10:54:06;;;;;;;17.40;16.20;;;35.50;53.60;;;;;;5069343;28;20948;-65
2021/06/05 10:56:38;;;;;;;17.33;16.30;;;35.90;50.30;;;;;;5069130;28;21046;-64
2021/06/05 10:59:44;;;;;;;16.30;15.23;;;36.00;48.80;;;;;;5067686;28;20829;-64
2021/06/05 11:02:31;;;;;;;16.43;15.47;;;36.20;47.70;;;;;;5070589;28;20479;-64
2021/06/05 11:04:57;;;;;;;18.20;17.07;;;36.00;46.80;;;;;;5069575;28;20514;-64
2021/06/05 11:07:32;;;;;;;17.13;15.90;;;35.20;48.20;;;;;;5069715;28;21007;-64
2021/06/05 11:10:00;;;;;;;18.17;16.97;;;35.40;49.20;;;;;;5067299;28;20253;-66
2021/06/05 11:12:25;;;;;;;18.07;16.97;;;36.10;47.60;;;;;;5066833;28;20766;-65
2021/06/05 11:14:53;;;;;;;17.83;16.67;;;36.00;45.40;;;;;;5062717;28;20447;-65
2021/06/05 11:17:19;;;;;;;17.50;16.40;;;36.70;44.30;;;;;;5069994;28;20185;-63
2021/06/05 11:19:53;;;;;;;15.70;14.80;;;37.50;43.60;;;;;;5069241;28;20502;-65
2021/06/05 11:22:26;;;;;;;16.77;15.63;;;37.90;41.60;;;;;;5056338;28;20212;-65
2021/06/05 11:25:07;;;;;;;17.27;16.17;;;37.60;40.80;;;;;;5070037;28;20407;-64
2021/06/05 11:27:36;;;;;;;16.27;15.18;;;37.60;40.50;;;;;;5068915;28;20496;-65
2021/06/05 11:30:26;;;;;;;16.47;15.47;;;37.70;40.30;;;;;;5069035;28;20185;-54
2021/06/05 11:33:09;;;;;;;16.87;15.83;;;37.80;39.60;;;;;;5069178;28;20438;-64
2021/06/05 11:35:54;;;;;;;17.60;16.40;;;37.20;40.40;;;;;;5059231;28;20518;-55
2021/06/05 11:38:19;;;;;;;16.33;15.33;;;36.70;41.70;;;;;;5069495;28;21122;-64
2021/06/05 11:40:57;;;;;;;16.17;15.17;;;36.30;40.50;;;;;;5069680;28;20470;-64
2021/06/05 11:43:28;;;;;;;16.60;15.60;;;36.30;40.40;;;;;;5068688;28;20185;-65
2021/06/05 11:46:03;;;;;;;16.57;15.47;;;37.00;38.50;;;;;;5069098;28;20971;-65
2021/06/05 11:48:47;;;;;;;16.20;15.30;;;38.00;37.90;;;;;;5068431;28;20498;-58
2021/06/05 11:51:33;;;;;;;17.90;16.80;;;37.90;36.60;;;;;;5069567;28;20469;-64
2021/06/05 11:54:00;;;;;;;15.83;14.87;;;37.10;38.60;;;;;;5054926;28;20913;-65
2021/06/05 11:56:42;;;;;;;16.97;15.87;;;36.50;39.00;;;;;;5069393;28;20424;-64
2021/06/05 11:59:22;;;;;;;15.77;14.87;;;35.70;40.10;;;;;;5068213;28;20875;-60
2021/06/05 12:01:48;;;;;;;15.60;14.63;;;34.80;41.50;;;;;;5069061;28;20458;-64
2021/06/05 12:04:18;;;;;;;15.57;14.57;;;33.80;43.20;;;;;;5068195;28;20528;-64
2021/06/05 12:06:46;;;;;;;14.00;13.10;;;33.30;44.20;;;;;;5069021;28;20510;-65
2021/06/05 12:09:16;;;;;;;14.37;13.47;;;33.10;44.20;;;;;;5068509;28;20900;-64
2021/06/05 12:11:55;;;;;;;14.10;13.30;;;33.00;45.10;;;;;;5068999;28;20419;-64
2021/06/05 12:14:40;;;;;;;13.20;12.30;;;33.70;44.50;;;;;;5056079;28;20407;-64
2021/06/05 12:17:24;;;;;;;13.90;12.90;;;35.10;41.90;;;;;;5065242;28;20747;-65
2021/06/05 12:19:49;;;;;;;13.40;12.60;;;36.00;39.90;;;;;;5069255;28;20423;-64
2021/06/05 12:22:25;;;;;;;12.50;11.80;;;36.20;37.50;;;;;;5069165;28;20466;-65
2021/06/05 12:24:52;;;;;;;12.93;12.00;;;35.60;37.80;;;;;;5067383;28;20253;-64
2021/06/05 12:27:35;;;;;;;12.83;12.13;;;35.10;38.70;;;;;;5068031;28;20416;-57
2021/06/05 12:30:10;;;;;;;11.23;10.53;;;35.40;39.40;;;;;;5068045;28;20510;-65
2021/06/05 12:32:36;;;;;;;11.77;10.97;;;36.60;37.30;;;;;;5068628;28;20416;-65
2021/06/05 12:35:43;;;;;;;11.60;10.97;;;37.80;34.40;;;;;;5067791;28;20839;-65
2021/06/05 12:38:12;;;;;;;11.20;10.47;;;38.30;32.20;;;;;;5058386;28;20422;-65
2021/06/05 12:41:06;;;;;;;11.20;10.50;;;39.00;30.80;;;;;;5068881;28;20411;-65
2021/06/05 12:43:35;;;;;;;11.00;10.40;;;39.10;30.40;;;;;;5068578;28;20430;-60
2021/06/05 12:46:04;;;;;;;10.23;9.63;;;39.30;30.00;;;;;;5067834;28;20876;-65